sensor_id;sensor_type;location;lat;lon;timestamp;P1;durP1;ratioP1;P2;durP2;ratioP2
13872;SDS011;7006;51.494;11.964;2023-09-30T00:00:41;3.80;;;1.93;;
13872;SDS011;7006;51.494;11.964;2023-09-30T00:03:09;5.30;;;1.80;;
13872;SDS011;7006;51.494;11.964;2023-09-30T00:05:38;8.80;;;2.10;;
13872;SDS011;7006;51.494;11.964;2023-09-30T00:08:06;5.17;;;2.30;;
13872;SDS011;7006;51.494;11.964;2023-09-30T00:10:37;4.77;;;2.43;;
13872;SDS011;7006;51.494;11.964;2023-09-30T00:13:05;4.33;;;1.87;;
13872;SDS011;7006;51.494;11.964;2023-09-30T00:15:34;7.80;;;2.90;;
13872;SDS011;7006;51.494;11.964;2023-09-30T00:18:02;4.33;;;2.50;;
13872;SDS011;7006;51.494;11.964;2023-09-30T00:20:30;8.13;;;3.73;;
13872;SDS011;7006;51.494;11.964;2023-09-30T00:22:58;7.57;;;3.43;;
13872;SDS011;7006;51.494;11.964;2023-09-30T00:25:37;4.90;;;3.10;;
13872;SDS011;7006;51.494;11.964;2023-09-30T00:28:05;7.47;;;3.73;;
13872;SDS011;7006;51.494;11.964;2023-09-30T00:30:33;6.43;;;3.00;;
13872;SDS011;7006;51.494;11.964;2023-09-30T00:33:01;6.33;;;3.47;;
13872;SDS011;7006;51.494;11.964;2023-09-30T00:35:31;6.10;;;3.30;;
13872;SDS011;7006;51.494;11.964;2023-09-30T00:37:59;5.60;;;3.17;;
13872;SDS011;7006;51.494;11.964;2023-09-30T00:40:27;8.23;;;3.50;;
13872;SDS011;7006;51.494;11.964;2023-09-30T00:42:58;7.30;;;3.40;;
13872;SDS011;7006;51.494;11.964;2023-09-30T00:45:26;8.17;;;3.50;;
13872;SDS011;7006;51.494;11.964;2023-09-30T00:47:54;9.07;;;4.13;;
13872;SDS011;7006;51.494;11.964;2023-09-30T00:50:23;6.03;;;3.27;;
13872;SDS011;7006;51.494;11.964;2023-09-30T00:52:52;5.90;;;3.20;;
13872;SDS011;7006;51.494;11.964;2023-09-30T00:55:21;7.53;;;3.50;;
13872;SDS011;7006;51.494;11.964;2023-09-30T00:57:49;6.83;;;3.40;;
13872;SDS011;7006;51.494;11.964;2023-09-30T01:00:20;9.33;;;4.00;;
13872;SDS011;7006;51.494;11.964;2023-09-30T01:02:50;7.07;;;3.10;;
13872;SDS011;7006;51.494;11.964;2023-09-30T01:05:18;7.67;;;3.47;;
13872;SDS011;7006;51.494;11.964;2023-09-30T01:07:46;6.07;;;3.27;;
13872;SDS011;7006;51.494;11.964;2023-09-30T01:10:14;7.60;;;3.30;;
13872;SDS011;7006;51.494;11.964;2023-09-30T01:12:43;8.73;;;4.50;;
13872;SDS011;7006;51.494;11.964;2023-09-30T01:15:12;7.47;;;3.73;;
13872;SDS011;7006;51.494;11.964;2023-09-30T01:17:42;6.60;;;3.90;;
13872;SDS011;7006;51.494;11.964;2023-09-30T01:20:10;8.30;;;4.00;;
13872;SDS011;7006;51.494;11.964;2023-09-30T01:22:49;7.83;;;4.03;;
13872;SDS011;7006;51.494;11.964;2023-09-30T01:25:18;8.33;;;4.23;;
13872;SDS011;7006;51.494;11.964;2023-09-30T01:27:46;6.40;;;4.57;;
13872;SDS011;7006;51.494;11.964;2023-09-30T01:30:16;8.90;;;4.07;;
13872;SDS011;7006;51.494;11.964;2023-09-30T01:32:44;6.40;;;3.90;;
13872;SDS011;7006;51.494;11.964;2023-09-30T01:35:13;8.20;;;4.60;;
13872;SDS011;7006;51.494;11.964;2023-09-30T01:37:41;8.13;;;4.80;;
13872;SDS011;7006;51.494;11.964;2023-09-30T01:40:09;11.10;;;4.77;;
13872;SDS011;7006;51.494;11.964;2023-09-30T01:42:37;8.87;;;4.77;;
13872;SDS011;7006;51.494;11.964;2023-09-30T01:45:06;7.47;;;4.30;;
13872;SDS011;7006;51.494;11.964;2023-09-30T01:47:35;9.20;;;4.47;;
13872;SDS011;7006;51.494;11.964;2023-09-30T01:50:03;10.77;;;5.20;;
13872;SDS011;7006;51.494;11.964;2023-09-30T01:52:32;7.53;;;4.50;;
13872;SDS011;7006;51.494;11.964;2023-09-30T01:55:00;9.97;;;4.93;;
13872;SDS011;7006;51.494;11.964;2023-09-30T01:57:30;8.03;;;4.93;;
13872;SDS011;7006;51.494;11.964;2023-09-30T01:59:58;9.63;;;5.00;;
13872;SDS011;7006;51.494;11.964;2023-09-30T02:02:26;10.00;;;4.70;;
13872;SDS011;7006;51.494;11.964;2023-09-30T02:04:54;10.07;;;5.00;;
13872;SDS011;7006;51.494;11.964;2023-09-30T02:07:23;11.00;;;5.20;;
13872;SDS011;7006;51.494;11.964;2023-09-30T02:09:51;7.23;;;5.00;;
13872;SDS011;7006;51.494;11.964;2023-09-30T02:12:20;7.87;;;4.90;;
13872;SDS011;7006;51.494;11.964;2023-09-30T02:14:50;13.00;;;5.50;;
13872;SDS011;7006;51.494;11.964;2023-09-30T02:17:18;10.23;;;5.40;;
13872;SDS011;7006;51.494;11.964;2023-09-30T02:19:47;9.40;;;5.03;;
13872;SDS011;7006;51.494;11.964;2023-09-30T02:22:15;11.90;;;5.77;;
13872;SDS011;7006;51.494;11.964;2023-09-30T02:24:43;9.90;;;5.33;;
13872;SDS011;7006;51.494;11.964;2023-09-30T02:27:13;11.00;;;5.10;;
13872;SDS011;7006;51.494;11.964;2023-09-30T02:29:41;6.63;;;4.27;;
13872;SDS011;7006;51.494;11.964;2023-09-30T02:32:12;10.30;;;4.53;;
13872;SDS011;7006;51.494;11.964;2023-09-30T02:34:40;14.63;;;5.17;;
13872;SDS011;7006;51.494;11.964;2023-09-30T02:37:09;8.60;;;4.60;;
13872;SDS011;7006;51.494;11.964;2023-09-30T02:39:37;11.57;;;4.90;;
13872;SDS011;7006;51.494;11.964;2023-09-30T02:42:05;13.00;;;4.87;;
13872;SDS011;7006;51.494;11.964;2023-09-30T02:44:33;7.90;;;4.50;;
13872;SDS011;7006;51.494;11.964;2023-09-30T02:47:01;8.10;;;3.90;;
13872;SDS011;7006;51.494;11.964;2023-09-30T02:49:35;10.50;;;4.63;;
13872;SDS011;7006;51.494;11.964;2023-09-30T02:52:04;10.23;;;4.70;;
13872;SDS011;7006;51.494;11.964;2023-09-30T02:54:32;9.70;;;4.43;;
13872;SDS011;7006;51.494;11.964;2023-09-30T02:57:00;11.27;;;4.83;;
13872;SDS011;7006;51.494;11.964;2023-09-30T02:59:29;9.00;;;4.83;;
13872;SDS011;7006;51.494;11.964;2023-09-30T03:01:57;9.90;;;4.00;;
13872;SDS011;7006;51.494;11.964;2023-09-30T03:04:25;14.07;;;4.87;;
13872;SDS011;7006;51.494;11.964;2023-09-30T03:06:55;11.07;;;4.77;;
13872;SDS011;7006;51.494;11.964;2023-09-30T03:09:24;10.83;;;6.00;;
13872;SDS011;7006;51.494;11.964;2023-09-30T03:11:52;12.97;;;5.43;;
13872;SDS011;7006;51.494;11.964;2023-09-30T03:14:21;11.43;;;4.53;;
13872;SDS011;7006;51.494;11.964;2023-09-30T03:16:50;9.43;;;4.30;;
13872;SDS011;7006;51.494;11.964;2023-09-30T03:19:18;13.60;;;5.20;;
13872;SDS011;7006;51.494;11.964;2023-09-30T03:21:46;14.30;;;4.60;;
13872;SDS011;7006;51.494;11.964;2023-09-30T03:24:17;12.10;;;4.20;;
13872;SDS011;7006;51.494;11.964;2023-09-30T03:26:46;9.30;;;4.63;;
13872;SDS011;7006;51.494;11.964;2023-09-30T03:29:14;13.27;;;4.90;;
13872;SDS011;7006;51.494;11.964;2023-09-30T03:31:42;8.10;;;4.60;;
13872;SDS011;7006;51.494;11.964;2023-09-30T03:34:10;8.80;;;3.87;;
13872;SDS011;7006;51.494;11.964;2023-09-30T03:36:41;12.70;;;4.87;;
13872;SDS011;7006;51.494;11.964;2023-09-30T03:39:09;8.77;;;3.43;;
13872;SDS011;7006;51.494;11.964;2023-09-30T03:41:42;11.93;;;3.77;;
13872;SDS011;7006;51.494;11.964;2023-09-30T03:44:10;8.80;;;4.30;;
13872;SDS011;7006;51.494;11.964;2023-09-30T03:46:39;10.90;;;4.00;;
13872;SDS011;7006;51.494;11.964;2023-09-30T03:49:08;8.60;;;4.30;;
13872;SDS011;7006;51.494;11.964;2023-09-30T03:51:36;7.70;;;4.20;;
13872;SDS011;7006;51.494;11.964;2023-09-30T03:54:04;13.37;;;5.00;;
13872;SDS011;7006;51.494;11.964;2023-09-30T03:56:33;13.17;;;4.40;;
13872;SDS011;7006;51.494;11.964;2023-09-30T03:59:06;14.10;;;4.57;;
13872;SDS011;7006;51.494;11.964;2023-09-30T04:01:34;11.30;;;3.60;;
13872;SDS011;7006;51.494;11.964;2023-09-30T04:04:05;13.63;;;4.53;;
13872;SDS011;7006;51.494;11.964;2023-09-30T04:06:34;13.47;;;3.70;;
13872;SDS011;7006;51.494;11.964;2023-09-30T04:09:03;12.37;;;4.23;;
13872;SDS011;7006;51.494;11.964;2023-09-30T04:11:34;10.43;;;4.50;;
13872;SDS011;7006;51.494;11.964;2023-09-30T04:14:06;12.53;;;4.40;;
13872;SDS011;7006;51.494;11.964;2023-09-30T04:16:34;10.63;;;4.43;;
13872;SDS011;7006;51.494;11.964;2023-09-30T04:19:03;10.23;;;4.57;;
13872;SDS011;7006;51.494;11.964;2023-09-30T04:21:32;9.43;;;3.80;;
13872;SDS011;7006;51.494;11.964;2023-09-30T04:24:00;12.37;;;4.03;;
13872;SDS011;7006;51.494;11.964;2023-09-30T04:26:29;11.77;;;4.40;;
13872;SDS011;7006;51.494;11.964;2023-09-30T04:28:57;11.20;;;4.90;;
13872;SDS011;7006;51.494;11.964;2023-09-30T04:31:28;12.97;;;4.70;;
13872;SDS011;7006;51.494;11.964;2023-09-30T04:33:56;9.30;;;4.20;;
13872;SDS011;7006;51.494;11.964;2023-09-30T04:36:25;11.97;;;5.07;;
13872;SDS011;7006;51.494;11.964;2023-09-30T04:38:53;10.60;;;4.40;;
13872;SDS011;7006;51.494;11.964;2023-09-30T04:41:21;10.17;;;4.57;;
13872;SDS011;7006;51.494;11.964;2023-09-30T04:43:50;11.87;;;4.87;;
13872;SDS011;7006;51.494;11.964;2023-09-30T04:46:18;11.80;;;4.10;;
13872;SDS011;7006;51.494;11.964;2023-09-30T04:48:51;9.67;;;4.07;;
13872;SDS011;7006;51.494;11.964;2023-09-30T04:51:19;14.80;;;4.80;;
13872;SDS011;7006;51.494;11.964;2023-09-30T04:53:47;13.20;;;4.90;;
13872;SDS011;7006;51.494;11.964;2023-09-30T04:56:15;10.33;;;4.20;;
13872;SDS011;7006;51.494;11.964;2023-09-30T04:58:43;11.73;;;5.10;;
13872;SDS011;7006;51.494;11.964;2023-09-30T05:01:12;10.30;;;4.55;;
13872;SDS011;7006;51.494;11.964;2023-09-30T05:03:40;12.97;;;4.50;;
13872;SDS011;7006;51.494;11.964;2023-09-30T05:06:11;11.93;;;4.60;;
13872;SDS011;7006;51.494;11.964;2023-09-30T05:08:39;9.67;;;3.93;;
13872;SDS011;7006;51.494;11.964;2023-09-30T05:11:07;11.03;;;4.40;;
13872;SDS011;7006;51.494;11.964;2023-09-30T05:13:37;10.90;;;4.23;;
13872;SDS011;7006;51.494;11.964;2023-09-30T05:16:05;9.27;;;3.67;;
13872;SDS011;7006;51.494;11.964;2023-09-30T05:18:33;9.93;;;4.50;;
13872;SDS011;7006;51.494;11.964;2023-09-30T05:21:02;10.63;;;4.00;;
13872;SDS011;7006;51.494;11.964;2023-09-30T05:23:34;9.73;;;4.80;;
13872;SDS011;7006;51.494;11.964;2023-09-30T05:26:02;12.20;;;3.73;;
13872;SDS011;7006;51.494;11.964;2023-09-30T05:28:31;9.70;;;3.93;;
13872;SDS011;7006;51.494;11.964;2023-09-30T05:30:59;11.67;;;3.83;;
13872;SDS011;7006;51.494;11.964;2023-09-30T05:33:27;10.90;;;3.70;;
13872;SDS011;7006;51.494;11.964;2023-09-30T05:35:55;8.93;;;3.77;;
13872;SDS011;7006;51.494;11.964;2023-09-30T05:38:24;12.20;;;4.70;;
13872;SDS011;7006;51.494;11.964;2023-09-30T05:40:55;14.10;;;3.63;;
13872;SDS011;7006;51.494;11.964;2023-09-30T05:43:24;9.90;;;3.67;;
13872;SDS011;7006;51.494;11.964;2023-09-30T05:45:52;10.53;;;4.03;;
13872;SDS011;7006;51.494;11.964;2023-09-30T05:48:20;12.53;;;4.47;;
13872;SDS011;7006;51.494;11.964;2023-09-30T05:50:48;8.17;;;3.40;;
13872;SDS011;7006;51.494;11.964;2023-09-30T05:53:17;8.53;;;3.70;;
13872;SDS011;7006;51.494;11.964;2023-09-30T05:55:46;9.03;;;3.40;;
13872;SDS011;7006;51.494;11.964;2023-09-30T05:58:16;7.47;;;4.00;;
13872;SDS011;7006;51.494;11.964;2023-09-30T06:00:44;11.03;;;3.57;;
13872;SDS011;7006;51.494;11.964;2023-09-30T06:03:13;10.70;;;4.20;;
13872;SDS011;7006;51.494;11.964;2023-09-30T06:05:41;10.50;;;3.77;;
13872;SDS011;7006;51.494;11.964;2023-09-30T06:08:10;11.60;;;4.30;;
13872;SDS011;7006;51.494;11.964;2023-09-30T06:10:39;10.70;;;4.57;;
13872;SDS011;7006;51.494;11.964;2023-09-30T06:13:08;8.73;;;3.53;;
13872;SDS011;7006;51.494;11.964;2023-09-30T06:15:39;7.90;;;3.70;;
13872;SDS011;7006;51.494;11.964;2023-09-30T06:18:08;10.77;;;4.10;;
13872;SDS011;7006;51.494;11.964;2023-09-30T06:20:40;9.57;;;3.90;;
13872;SDS011;7006;51.494;11.964;2023-09-30T06:23:08;6.70;;;3.50;;
13872;SDS011;7006;51.494;11.964;2023-09-30T06:25:36;11.00;;;3.97;;
13872;SDS011;7006;51.494;11.964;2023-09-30T06:28:05;9.90;;;3.87;;
13872;SDS011;7006;51.494;11.964;2023-09-30T06:30:33;19.33;;;5.30;;
13872;SDS011;7006;51.494;11.964;2023-09-30T06:33:04;12.40;;;4.10;;
13872;SDS011;7006;51.494;11.964;2023-09-30T06:35:34;10.57;;;4.50;;
13872;SDS011;7006;51.494;11.964;2023-09-30T06:38:07;9.80;;;3.47;;
13872;SDS011;7006;51.494;11.964;2023-09-30T06:40:35;7.10;;;3.60;;
13872;SDS011;7006;51.494;11.964;2023-09-30T06:43:04;7.53;;;3.80;;
13872;SDS011;7006;51.494;11.964;2023-09-30T06:45:32;10.30;;;4.10;;
13872;SDS011;7006;51.494;11.964;2023-09-30T06:48:09;10.87;;;4.60;;
13872;SDS011;7006;51.494;11.964;2023-09-30T06:50:39;12.50;;;4.67;;
13872;SDS011;7006;51.494;11.964;2023-09-30T06:53:07;11.47;;;4.90;;
13872;SDS011;7006;51.494;11.964;2023-09-30T06:55:36;8.80;;;5.03;;
13872;SDS011;7006;51.494;11.964;2023-09-30T06:58:04;9.20;;;5.17;;
13872;SDS011;7006;51.494;11.964;2023-09-30T07:00:35;13.30;;;4.23;;
13872;SDS011;7006;51.494;11.964;2023-09-30T07:03:03;11.00;;;3.63;;
13872;SDS011;7006;51.494;11.964;2023-09-30T07:05:35;6.60;;;4.20;;
13872;SDS011;7006;51.494;11.964;2023-09-30T07:08:04;9.27;;;4.27;;
13872;SDS011;7006;51.494;11.964;2023-09-30T07:10:32;9.73;;;4.07;;
13872;SDS011;7006;51.494;11.964;2023-09-30T07:13:01;8.43;;;3.97;;
13872;SDS011;7006;51.494;11.964;2023-09-30T07:15:29;14.07;;;4.33;;
13872;SDS011;7006;51.494;11.964;2023-09-30T07:17:57;9.37;;;4.00;;
13872;SDS011;7006;51.494;11.964;2023-09-30T07:20:26;9.20;;;4.20;;
13872;SDS011;7006;51.494;11.964;2023-09-30T07:23:00;9.30;;;4.60;;
13872;SDS011;7006;51.494;11.964;2023-09-30T07:25:28;11.13;;;4.30;;
13872;SDS011;7006;51.494;11.964;2023-09-30T07:27:57;10.10;;;4.20;;
13872;SDS011;7006;51.494;11.964;2023-09-30T07:30:26;11.20;;;4.40;;
13872;SDS011;7006;51.494;11.964;2023-09-30T07:32:54;14.27;;;5.20;;
13872;SDS011;7006;51.494;11.964;2023-09-30T07:35:23;9.67;;;4.40;;
13872;SDS011;7006;51.494;11.964;2023-09-30T07:37:51;11.50;;;5.00;;
13872;SDS011;7006;51.494;11.964;2023-09-30T07:40:22;9.90;;;4.30;;
13872;SDS011;7006;51.494;11.964;2023-09-30T07:42:50;10.50;;;5.37;;
13872;SDS011;7006;51.494;11.964;2023-09-30T07:45:18;8.27;;;4.30;;
13872;SDS011;7006;51.494;11.964;2023-09-30T07:47:46;8.33;;;4.00;;
13872;SDS011;7006;51.494;11.964;2023-09-30T07:50:16;9.33;;;4.83;;
13872;SDS011;7006;51.494;11.964;2023-09-30T07:52:44;11.80;;;4.77;;
13872;SDS011;7006;51.494;11.964;2023-09-30T07:55:12;7.23;;;4.47;;
13872;SDS011;7006;51.494;11.964;2023-09-30T07:57:43;7.73;;;3.57;;
13872;SDS011;7006;51.494;11.964;2023-09-30T08:00:11;14.47;;;4.90;;
13872;SDS011;7006;51.494;11.964;2023-09-30T08:02:42;14.93;;;4.80;;
13872;SDS011;7006;51.494;11.964;2023-09-30T08:05:13;13.33;;;5.77;;
13872;SDS011;7006;51.494;11.964;2023-09-30T08:07:41;12.23;;;4.83;;
13872;SDS011;7006;51.494;11.964;2023-09-30T08:10:11;15.10;;;4.10;;
13872;SDS011;7006;51.494;11.964;2023-09-30T08:12:44;12.53;;;4.77;;
13872;SDS011;7006;51.494;11.964;2023-09-30T08:15:13;8.03;;;4.50;;
13872;SDS011;7006;51.494;11.964;2023-09-30T08:17:42;10.00;;;3.80;;
13872;SDS011;7006;51.494;11.964;2023-09-30T08:20:10;8.47;;;4.53;;
13872;SDS011;7006;51.494;11.964;2023-09-30T08:22:39;11.23;;;4.10;;
13872;SDS011;7006;51.494;11.964;2023-09-30T08:25:07;10.50;;;4.10;;
13872;SDS011;7006;51.494;11.964;2023-09-30T08:27:36;9.87;;;4.40;;
13872;SDS011;7006;51.494;11.964;2023-09-30T08:30:07;9.97;;;3.60;;
13872;SDS011;7006;51.494;11.964;2023-09-30T08:32:35;9.57;;;3.70;;
13872;SDS011;7006;51.494;11.964;2023-09-30T08:35:04;9.23;;;4.00;;
13872;SDS011;7006;51.494;11.964;2023-09-30T08:37:32;11.57;;;4.03;;
13872;SDS011;7006;51.494;11.964;2023-09-30T08:40:00;9.93;;;3.77;;
13872;SDS011;7006;51.494;11.964;2023-09-30T08:42:29;8.70;;;3.30;;
13872;SDS011;7006;51.494;11.964;2023-09-30T08:44:59;8.53;;;4.03;;
13872;SDS011;7006;51.494;11.964;2023-09-30T08:47:29;10.03;;;3.30;;
13872;SDS011;7006;51.494;11.964;2023-09-30T08:49:59;12.23;;;3.80;;
13872;SDS011;7006;51.494;11.964;2023-09-30T08:52:31;8.97;;;3.70;;
13872;SDS011;7006;51.494;11.964;2023-09-30T08:54:59;10.90;;;3.90;;
13872;SDS011;7006;51.494;11.964;2023-09-30T08:57:28;9.30;;;3.83;;
13872;SDS011;7006;51.494;11.964;2023-09-30T08:59:57;8.40;;;3.40;;
13872;SDS011;7006;51.494;11.964;2023-09-30T09:02:25;9.13;;;3.67;;
13872;SDS011;7006;51.494;11.964;2023-09-30T09:04:57;6.63;;;3.27;;
13872;SDS011;7006;51.494;11.964;2023-09-30T09:07:25;7.80;;;3.50;;
13872;SDS011;7006;51.494;11.964;2023-09-30T09:10:05;10.40;;;3.57;;
13872;SDS011;7006;51.494;11.964;2023-09-30T09:12:36;9.73;;;4.17;;
13872;SDS011;7006;51.494;11.964;2023-09-30T09:15:05;11.30;;;3.57;;
13872;SDS011;7006;51.494;11.964;2023-09-30T09:17:41;8.40;;;3.40;;
13872;SDS011;7006;51.494;11.964;2023-09-30T09:20:16;7.27;;;3.60;;
13872;SDS011;7006;51.494;11.964;2023-09-30T09:22:45;6.50;;;3.30;;
13872;SDS011;7006;51.494;11.964;2023-09-30T09:25:16;8.37;;;3.70;;
13872;SDS011;7006;51.494;11.964;2023-09-30T09:27:44;6.43;;;3.13;;
13872;SDS011;7006;51.494;11.964;2023-09-30T09:30:18;12.73;;;4.10;;
13872;SDS011;7006;51.494;11.964;2023-09-30T09:32:54;7.33;;;3.30;;
13872;SDS011;7006;51.494;11.964;2023-09-30T09:35:25;14.60;;;4.10;;
13872;SDS011;7006;51.494;11.964;2023-09-30T09:37:54;7.53;;;3.43;;
13872;SDS011;7006;51.494;11.964;2023-09-30T09:40:25;9.70;;;3.43;;
13872;SDS011;7006;51.494;11.964;2023-09-30T09:42:56;7.00;;;3.73;;
13872;SDS011;7006;51.494;11.964;2023-09-30T09:45:25;7.60;;;3.07;;
13872;SDS011;7006;51.494;11.964;2023-09-30T09:47:57;7.90;;;2.80;;
13872;SDS011;7006;51.494;11.964;2023-09-30T09:50:28;4.83;;;2.40;;
13872;SDS011;7006;51.494;11.964;2023-09-30T09:52:58;9.70;;;3.20;;
13872;SDS011;7006;51.494;11.964;2023-09-30T09:55:26;9.20;;;3.00;;
13872;SDS011;7006;51.494;11.964;2023-09-30T09:57:55;9.43;;;2.70;;
13872;SDS011;7006;51.494;11.964;2023-09-30T10:00:24;8.60;;;2.87;;
13872;SDS011;7006;51.494;11.964;2023-09-30T10:02:54;6.73;;;2.90;;
13872;SDS011;7006;51.494;11.964;2023-09-30T10:05:23;11.43;;;3.47;;
13872;SDS011;7006;51.494;11.964;2023-09-30T10:07:56;6.60;;;2.57;;
13872;SDS011;7006;51.494;11.964;2023-09-30T10:10:25;8.43;;;2.97;;
13872;SDS011;7006;51.494;11.964;2023-09-30T10:12:54;11.33;;;2.90;;
13872;SDS011;7006;51.494;11.964;2023-09-30T10:15:35;6.17;;;2.37;;
13872;SDS011;7006;51.494;11.964;2023-09-30T10:18:05;5.93;;;1.90;;
13872;SDS011;7006;51.494;11.964;2023-09-30T10:20:35;6.67;;;2.30;;
13872;SDS011;7006;51.494;11.964;2023-09-30T10:25:47;7.70;;;2.40;;
13872;SDS011;7006;51.494;11.964;2023-09-30T10:31:12;6.87;;;2.57;;
13872;SDS011;7006;51.494;11.964;2023-09-30T10:36:27;6.73;;;2.03;;
13872;SDS011;7006;51.494;11.964;2023-09-30T10:38:56;7.10;;;2.60;;
13872;SDS011;7006;51.494;11.964;2023-09-30T10:46:57;6.93;;;2.63;;
13872;SDS011;7006;51.494;11.964;2023-09-30T10:49:32;7.70;;;2.60;;
13872;SDS011;7006;51.494;11.964;2023-09-30T10:52:01;7.50;;;2.37;;
13872;SDS011;7006;51.494;11.964;2023-09-30T10:54:29;8.70;;;2.20;;
13872;SDS011;7006;51.494;11.964;2023-09-30T10:56:58;5.57;;;2.40;;
13872;SDS011;7006;51.494;11.964;2023-09-30T10:59:29;8.97;;;3.23;;
13872;SDS011;7006;51.494;11.964;2023-09-30T11:02:02;6.43;;;2.20;;
13872;SDS011;7006;51.494;11.964;2023-09-30T11:04:30;8.53;;;2.80;;
13872;SDS011;7006;51.494;11.964;2023-09-30T11:07:15;9.33;;;2.60;;
13872;SDS011;7006;51.494;11.964;2023-09-30T11:09:44;5.07;;;2.47;;
13872;SDS011;7006;51.494;11.964;2023-09-30T11:12:13;6.83;;;2.30;;
13872;SDS011;7006;51.494;11.964;2023-09-30T11:14:41;6.50;;;2.53;;
13872;SDS011;7006;51.494;11.964;2023-09-30T11:17:12;4.80;;;2.40;;
13872;SDS011;7006;51.494;11.964;2023-09-30T11:19:45;5.30;;;2.27;;
13872;SDS011;7006;51.494;11.964;2023-09-30T11:22:14;6.30;;;2.30;;
13872;SDS011;7006;51.494;11.964;2023-09-30T11:24:42;6.77;;;2.50;;
13872;SDS011;7006;51.494;11.964;2023-09-30T11:27:11;7.10;;;2.40;;
13872;SDS011;7006;51.494;11.964;2023-09-30T11:29:47;8.97;;;3.00;;
13872;SDS011;7006;51.494;11.964;2023-09-30T11:32:25;8.37;;;2.53;;
13872;SDS011;7006;51.494;11.964;2023-09-30T11:34:54;5.27;;;2.10;;
13872;SDS011;7006;51.494;11.964;2023-09-30T11:37:22;5.10;;;2.33;;
13872;SDS011;7006;51.494;11.964;2023-09-30T11:39:50;7.37;;;2.47;;
13872;SDS011;7006;51.494;11.964;2023-09-30T11:42:18;6.07;;;2.63;;
13872;SDS011;7006;51.494;11.964;2023-09-30T11:44:47;6.53;;;2.30;;
13872;SDS011;7006;51.494;11.964;2023-09-30T11:47:15;12.03;;;3.20;;
13872;SDS011;7006;51.494;11.964;2023-09-30T11:49:46;7.43;;;2.30;;
13872;SDS011;7006;51.494;11.964;2023-09-30T11:52:25;8.30;;;2.20;;
13872;SDS011;7006;51.494;11.964;2023-09-30T11:54:54;5.80;;;1.70;;
13872;SDS011;7006;51.494;11.964;2023-09-30T11:57:23;6.23;;;2.20;;
13872;SDS011;7006;51.494;11.964;2023-09-30T11:59:51;8.30;;;2.23;;
13872;SDS011;7006;51.494;11.964;2023-09-30T12:02:20;6.53;;;2.63;;
13872;SDS011;7006;51.494;11.964;2023-09-30T12:04:50;8.70;;;2.40;;
13872;SDS011;7006;51.494;11.964;2023-09-30T12:07:18;6.07;;;2.50;;
13872;SDS011;7006;51.494;11.964;2023-09-30T12:09:47;11.83;;;2.10;;
13872;SDS011;7006;51.494;11.964;2023-09-30T12:12:15;7.43;;;2.00;;
13872;SDS011;7006;51.494;11.964;2023-09-30T12:14:43;5.60;;;1.77;;
13872;SDS011;7006;51.494;11.964;2023-09-30T12:17:11;4.40;;;1.87;;
13872;SDS011;7006;51.494;11.964;2023-09-30T12:19:39;7.70;;;2.30;;
13872;SDS011;7006;51.494;11.964;2023-09-30T12:22:10;5.37;;;1.77;;
13872;SDS011;7006;51.494;11.964;2023-09-30T12:24:38;5.60;;;2.30;;
13872;SDS011;7006;51.494;11.964;2023-09-30T12:27:07;4.80;;;2.10;;
13872;SDS011;7006;51.494;11.964;2023-09-30T12:29:37;6.40;;;2.20;;
13872;SDS011;7006;51.494;11.964;2023-09-30T12:32:06;5.80;;;2.00;;
13872;SDS011;7006;51.494;11.964;2023-09-30T12:34:34;5.50;;;2.07;;
13872;SDS011;7006;51.494;11.964;2023-09-30T12:37:03;7.43;;;2.30;;
13872;SDS011;7006;51.494;11.964;2023-09-30T12:39:34;4.33;;;1.90;;
13872;SDS011;7006;51.494;11.964;2023-09-30T12:42:02;5.87;;;2.43;;
13872;SDS011;7006;51.494;11.964;2023-09-30T12:44:34;5.80;;;2.17;;
13872;SDS011;7006;51.494;11.964;2023-09-30T12:47:02;7.37;;;2.40;;
13872;SDS011;7006;51.494;11.964;2023-09-30T12:49:30;3.50;;;1.93;;
13872;SDS011;7006;51.494;11.964;2023-09-30T12:51:59;8.10;;;2.50;;
13872;SDS011;7006;51.494;11.964;2023-09-30T12:54:27;6.80;;;2.20;;
13872;SDS011;7006;51.494;11.964;2023-09-30T12:56:58;4.80;;;2.33;;
13872;SDS011;7006;51.494;11.964;2023-09-30T12:59:26;5.40;;;2.20;;
13872;SDS011;7006;51.494;11.964;2023-09-30T13:01:54;5.07;;;1.70;;
13872;SDS011;7006;51.494;11.964;2023-09-30T13:04:23;7.60;;;2.00;;
13872;SDS011;7006;51.494;11.964;2023-09-30T13:06:52;9.10;;;1.90;;
13872;SDS011;7006;51.494;11.964;2023-09-30T13:09:20;7.63;;;2.30;;
13872;SDS011;7006;51.494;11.964;2023-09-30T13:11:49;5.60;;;2.20;;
13872;SDS011;7006;51.494;11.964;2023-09-30T13:14:19;4.13;;;2.10;;
13872;SDS011;7006;51.494;11.964;2023-09-30T13:16:48;8.77;;;2.33;;
13872;SDS011;7006;51.494;11.964;2023-09-30T13:19:16;5.87;;;2.07;;
13872;SDS011;7006;51.494;11.964;2023-09-30T13:21:46;5.73;;;1.90;;
13872;SDS011;7006;51.494;11.964;2023-09-30T13:24:14;9.33;;;1.77;;
13872;SDS011;7006;51.494;11.964;2023-09-30T13:26:43;4.67;;;2.30;;
13872;SDS011;7006;51.494;11.964;2023-09-30T13:29:11;4.93;;;1.97;;
13872;SDS011;7006;51.494;11.964;2023-09-30T13:31:44;5.17;;;2.00;;
13872;SDS011;7006;51.494;11.964;2023-09-30T13:34:12;7.20;;;2.03;;
13872;SDS011;7006;51.494;11.964;2023-09-30T13:36:41;8.40;;;2.30;;
13872;SDS011;7006;51.494;11.964;2023-09-30T13:39:09;5.03;;;1.50;;
13872;SDS011;7006;51.494;11.964;2023-09-30T13:41:39;4.20;;;1.50;;
13872;SDS011;7006;51.494;11.964;2023-09-30T13:44:07;5.53;;;1.97;;
13872;SDS011;7006;51.494;11.964;2023-09-30T13:46:37;4.73;;;1.70;;
13872;SDS011;7006;51.494;11.964;2023-09-30T13:49:08;4.20;;;1.57;;
13872;SDS011;7006;51.494;11.964;2023-09-30T13:51:36;3.73;;;1.70;;
13872;SDS011;7006;51.494;11.964;2023-09-30T13:54:04;4.07;;;1.80;;
13872;SDS011;7006;51.494;11.964;2023-09-30T13:56:32;3.40;;;1.40;;
13872;SDS011;7006;51.494;11.964;2023-09-30T13:59:01;5.00;;;1.83;;
13872;SDS011;7006;51.494;11.964;2023-09-30T14:01:29;5.80;;;1.90;;
13872;SDS011;7006;51.494;11.964;2023-09-30T14:03:58;6.90;;;1.60;;
13872;SDS011;7006;51.494;11.964;2023-09-30T14:06:28;6.13;;;1.97;;
13872;SDS011;7006;51.494;11.964;2023-09-30T14:08:58;5.00;;;1.57;;
13872;SDS011;7006;51.494;11.964;2023-09-30T14:11:26;4.53;;;1.77;;
13872;SDS011;7006;51.494;11.964;2023-09-30T14:13:55;5.50;;;1.80;;
13872;SDS011;7006;51.494;11.964;2023-09-30T14:16:24;5.80;;;2.30;;
13872;SDS011;7006;51.494;11.964;2023-09-30T14:18:52;7.10;;;2.10;;
13872;SDS011;7006;51.494;11.964;2023-09-30T14:21:20;4.10;;;1.63;;
13872;SDS011;7006;51.494;11.964;2023-09-30T14:23:51;3.10;;;1.20;;
13872;SDS011;7006;51.494;11.964;2023-09-30T14:26:19;5.10;;;1.60;;
13872;SDS011;7006;51.494;11.964;2023-09-30T14:28:47;4.00;;;1.53;;
13872;SDS011;7006;51.494;11.964;2023-09-30T14:31:15;7.10;;;2.03;;
13872;SDS011;7006;51.494;11.964;2023-09-30T14:33:43;4.30;;;1.60;;
13872;SDS011;7006;51.494;11.964;2023-09-30T14:36:11;2.87;;;1.50;;
13872;SDS011;7006;51.494;11.964;2023-09-30T14:38:39;4.83;;;2.03;;
13872;SDS011;7006;51.494;11.964;2023-09-30T14:41:10;5.50;;;1.77;;
13872;SDS011;7006;51.494;11.964;2023-09-30T14:43:39;7.00;;;3.17;;
13872;SDS011;7006;51.494;11.964;2023-09-30T14:46:07;3.20;;;1.70;;
13872;SDS011;7006;51.494;11.964;2023-09-30T14:48:35;6.33;;;2.17;;
13872;SDS011;7006;51.494;11.964;2023-09-30T14:51:04;3.73;;;2.00;;
13872;SDS011;7006;51.494;11.964;2023-09-30T14:53:33;6.00;;;2.10;;
13872;SDS011;7006;51.494;11.964;2023-09-30T14:56:01;7.20;;;2.50;;
13872;SDS011;7006;51.494;11.964;2023-09-30T14:58:33;4.97;;;2.10;;
13872;SDS011;7006;51.494;11.964;2023-09-30T15:01:01;5.27;;;2.20;;
13872;SDS011;7006;51.494;11.964;2023-09-30T15:03:35;4.97;;;1.90;;
13872;SDS011;7006;51.494;11.964;2023-09-30T15:06:04;7.77;;;2.00;;
13872;SDS011;7006;51.494;11.964;2023-09-30T15:08:32;11.77;;;4.80;;